Observation data for Levelland on 08/15/2019      Previous  Date       Current Mesonet Observations  Soil Data  Daily Summary Page  Observations in Plain Language
KLD1 150500Z 11007KT 26/14 A3018 RMK A01 T02630141  RH  049%=      5-min Rain = 0
KLD1 150505Z 12007KT 26/14 A3018 RMK A01 T02630141  RH  049%=      5-min Rain = 0
KLD1 150510Z 12007KT 26/14 A3018 RMK A01 T02630142  RH  050%=      5-min Rain = 0
KLD1 150515Z 12007KT 26/14 A3018 RMK A01 T02610143  RH  050%=      5-min Rain = 0
KLD1 150520Z 12006KT 26/14 A3018 RMK A01 T02600144  RH  051%=      5-min Rain = 0
KLD1 150525Z 12006KT 26/14 A3018 RMK A01 T02590144  RH  051%=      5-min Rain = 0
KLD1 150530Z 12006KT 26/15 A3018 RMK A01 T02580145  RH  052%=      5-min Rain = 0
KLD1 150535Z 12007KT 26/15 A3018 RMK A01 T02580145  RH  052%=      5-min Rain = 0
KLD1 150540Z 12007KT 26/15 A3018 RMK A01 T02570146  RH  052%=      5-min Rain = 0
KLD1 150545Z 12007KT 26/15 A3018 RMK A01 T02570146  RH  052%=      5-min Rain = 0
KLD1 150550Z 12006KT 26/15 A3019 RMK A01 T02570147  RH  053%=      5-min Rain = 0
KLD1 150555Z 13005KT 26/15 A3019 RMK A01 T02570147  RH  053%=      5-min Rain = 0
KLD1 150600Z 14005KT 26/15 A302 RMK A01 T02560148  RH  054%=      5-min Rain = 0
KLD1 150605Z 16004KT 25/15 A302 RMK A01 T02540149  RH  054%=      5-min Rain = 0
KLD1 150610Z 16004KT 25/15 A302 RMK A01 T02500150  RH  056%=      5-min Rain = 0
KLD1 150615Z 16004KT 25/15 A302 RMK A01 T02470151  RH  057%=      5-min Rain = 0
KLD1 150620Z 15005KT 25/15 A302 RMK A01 T02470150  RH  057%=      5-min Rain = 0
KLD1 150625Z 14005KT 25/15 A302 RMK A01 T02480150  RH  057%=      5-min Rain = 0
KLD1 150630Z 16003KT 25/15 A3021 RMK A01 T02490151  RH  057%=      5-min Rain = 0
KLD1 150635Z 23003KT 25/15 A3021 RMK A01 T02450152  RH  059%=      5-min Rain = 0
KLD1 150640Z 28006KT 24/15 A3021 RMK A01 T02430152  RH  059%=      5-min Rain = 0
KLD1 150645Z 29007KT 25/15 A3022 RMK A01 T02450149  RH  058%=      5-min Rain = 0
KLD1 150650Z 29006KT 25/15 A3022 RMK A01 T02480146  RH  055%=      5-min Rain = 0
KLD1 150655Z 28005KT 25/15 A3022 RMK A01 T02500147  RH  055%=      5-min Rain = 0
KLD1 150700Z 25007G14KT 25/15 A3022 RMK A01 T02510149  RH  055%=      5-min Rain = 0
KLD1 150705Z 27010KT 25/15 A3022 RMK A01 T02540147  RH  054%=      5-min Rain = 0
KLD1 150710Z 27010G15KT 26/15 A3022 RMK A01 T02590149  RH  053%=      5-min Rain = 0
KLD1 150715Z 27008KT 26/15 A3022 RMK A01 T02600147  RH  052%=      5-min Rain = 0
KLD1 150720Z 24003KT 26/15 A3022 RMK A01 T02610146  RH  051%=      5-min Rain = 0
KLD1 150725Z 24002KT 26/14 A3021 RMK A01 T02600144  RH  051%=      5-min Rain = 0
KLD1 150730Z 23002KT 26/14 A3021 RMK A01 T02580143  RH  051%=      5-min Rain = 0
KLD1 150735Z 27002KT 26/14 A302 RMK A01 T02560141  RH  051%=      5-min Rain = 0
KLD1 150740Z 24002KT 25/14 A3021 RMK A01 T02530143  RH  052%=      5-min Rain = 0
KLD1 150745Z 24005KT 25/14 A3021 RMK A01 T02500144  RH  054%=      5-min Rain = 0
KLD1 150750Z 25008KT 25/14 A3021 RMK A01 T02450139  RH  054%=      5-min Rain = 0
KLD1 150755Z 28006KT 24/14 A3021 RMK A01 T02440136  RH  053%=      5-min Rain = 0
KLD1 150800Z 28005KT 24/14 A3021 RMK A01 T02410136  RH  054%=      5-min Rain = 0
KLD1 150805Z 28004KT 24/14 A302 RMK A01 T02380136  RH  055%=      5-min Rain = 0
KLD1 150810Z 29002KT 24/14 A302 RMK A01 T02370135  RH  055%=      5-min Rain = 0
KLD1 150815Z 31002KT 24/14 A302 RMK A01 T02350135  RH  056%=      5-min Rain = 0
KLD1 150820Z 33003KT 23/13 A302 RMK A01 T02330134  RH  056%=      5-min Rain = 0
KLD1 150825Z 32002KT 23/13 A302 RMK A01 T02300134  RH  057%=      5-min Rain = 0
KLD1 150830Z 32001KT 23/13 A302 RMK A01 T02280133  RH  057%=      5-min Rain = 0
KLD1 150835Z 00001KT 23/13 A302 RMK A01 T02280134  RH  057%=      5-min Rain = 0
KLD1 150840Z 06002KT 23/14 A302 RMK A01 T02300136  RH  058%=      5-min Rain = 0
KLD1 150845Z 03003KT 23/14 A3019 RMK A01 T02290138  RH  059%=      5-min Rain = 0
KLD1 150850Z 02003KT 23/14 A3019 RMK A01 T02250137  RH  060%=      5-min Rain = 0
KLD1 150855Z 02001KT 22/14 A3019 RMK A01 T02210139  RH  062%=      5-min Rain = 0
KLD1 150900Z 36002KT 22/14 A3019 RMK A01 T02220136  RH  061%=      5-min Rain = 0
KLD1 150905Z 33002KT 23/14 A3019 RMK A01 T02280135  RH  058%=      5-min Rain = 0
KLD1 150910Z 35002KT 23/13 A3019 RMK A01 T02300133  RH  056%=      5-min Rain = 0
KLD1 150915Z 36001KT 23/13 A3018 RMK A01 T02300133  RH  056%=      5-min Rain = 0
KLD1 150920Z 00002KT 23/13 A3018 RMK A01 T02290133  RH  057%=      5-min Rain = 0
KLD1 150925Z 36002KT 23/13 A3018 RMK A01 T02300133  RH  057%=      5-min Rain = 0
KLD1 150930Z 35003KT 23/13 A3018 RMK A01 T02300134  RH  057%=      5-min Rain = 0
KLD1 150935Z 34002KT 23/14 A3018 RMK A01 T02290135  RH  058%=      5-min Rain = 0
KLD1 150940Z 35002KT 23/14 A3018 RMK A01 T02250135  RH  059%=      5-min Rain = 0
KLD1 150945Z 01003KT 22/14 A3018 RMK A01 T02220136  RH  060%=      5-min Rain = 0
KLD1 150950Z 01001KT 22/14 A3018 RMK A01 T02200136  RH  061%=      5-min Rain = 0
KLD1 150955Z 01001KT 22/14 A3018 RMK A01 T02190136  RH  062%=      5-min Rain = 0
KLD1 151000Z 01001KT 22/14 A3017 RMK A01 T02180138  RH  063%=      5-min Rain = 0
KLD1 151005Z 03001KT 22/14 A3017 RMK A01 T02190136  RH  062%=      5-min Rain = 0
KLD1 151010Z 06002KT 22/14 A3017 RMK A01 T02230136  RH  060%=      5-min Rain = 0
KLD1 151015Z 07002KT 22/14 A3017 RMK A01 T02230135  RH  060%=      5-min Rain = 0
KLD1 151020Z 08003KT 22/13 A3017 RMK A01 T02220133  RH  059%=      5-min Rain = 0
KLD1 151025Z 09004KT 22/14 A3016 RMK A01 T02210135  RH  061%=      5-min Rain = 0
KLD1 151030Z 10003KT 22/14 A3016 RMK A01 T02180137  RH  063%=      5-min Rain = 0
KLD1 151035Z 12003KT 22/14 A3016 RMK A01 T02190138  RH  063%=      5-min Rain = 0
KLD1 151040Z 11003KT 21/14 A3016 RMK A01 T02140143  RH  067%=      5-min Rain = 0
KLD1 151045Z 10004KT 21/14 A3016 RMK A01 T02120140  RH  066%=      5-min Rain = 0
KLD1 151050Z 10005KT 21/14 A3016 RMK A01 T02130138  RH  065%=      5-min Rain = 0
KLD1 151055Z 10005KT 20/14 A3016 RMK A01 T02030143  RH  071%=      5-min Rain = 0
KLD1 151100Z 10006KT 20/14 A3015 RMK A01 T02000144  RH  073%=      5-min Rain = 0
KLD1 151105Z 12006KT 21/14 A3015 RMK A01 T02070141  RH  069%=      5-min Rain = 0
KLD1 151110Z 13006KT 21/14 A3015 RMK A01 T02140140  RH  065%=      5-min Rain = 0
KLD1 151115Z 14005KT 22/14 A3016 RMK A01 T02180144  RH  066%=      5-min Rain = 0
KLD1 151120Z 13004KT 22/15 A3016 RMK A01 T02170146  RH  067%=      5-min Rain = 0
KLD1 151125Z 11003KT 22/15 A3016 RMK A01 T02160145  RH  067%=      5-min Rain = 0
KLD1 151130Z 10003KT 21/14 A3016 RMK A01 T02090144  RH  069%=      5-min Rain = 0
KLD1 151135Z 11004KT 21/15 A3017 RMK A01 T02060146  RH  071%=      5-min Rain = 0
KLD1 151140Z 11004KT 21/15 A3017 RMK A01 T02070149  RH  073%=      5-min Rain = 0
KLD1 151145Z 12005KT 21/15 A3017 RMK A01 T02090152  RH  073%=      5-min Rain = 0
KLD1 151150Z 12006KT 22/15 A3017 RMK A01 T02150154  RH  072%=      5-min Rain = 0
KLD1 151155Z 12006KT 22/16 A3017 RMK A01 T02190156  RH  071%=      5-min Rain = 0
KLD1 151200Z 12006KT 22/16 A3017 RMK A01 T02190158  RH  072%=      5-min Rain = 0
KLD1 151205Z 12006KT 22/16 A3017 RMK A01 T02180159  RH  073%=      5-min Rain = 0
KLD1 151210Z 12005KT 22/16 A3017 RMK A01 T02170160  RH  073%=      5-min Rain = 0
KLD1 151215Z 12006KT 22/16 A3017 RMK A01 T02200161  RH  072%=      5-min Rain = 0
KLD1 151220Z 12006KT 22/16 A3017 RMK A01 T02220162  RH  072%=      5-min Rain = 0
KLD1 151225Z 12005KT 22/16 A3017 RMK A01 T02230162  RH  072%=      5-min Rain = 0
KLD1 151230Z 12004KT 22/16 A3017 RMK A01 T02240163  RH  072%=      5-min Rain = 0
KLD1 151235Z 11003KT 22/16 A3017 RMK A01 T02240164  RH  072%=      5-min Rain = 0
KLD1 151240Z 11002KT 23/16 A3018 RMK A01 T02250164  RH  072%=      5-min Rain = 0
KLD1 151245Z 11002KT 23/16 A3018 RMK A01 T02280164  RH  071%=      5-min Rain = 0
KLD1 151250Z 12003KT 23/16 A3018 RMK A01 T02290164  RH  070%=      5-min Rain = 0
KLD1 151255Z 11003KT 23/17 A3018 RMK A01 T02300165  RH  070%=      5-min Rain = 0
KLD1 151300Z 12003KT 23/17 A3018 RMK A01 T02320166  RH  070%=      5-min Rain = 0
KLD1 151305Z 11002KT 24/17 A3019 RMK A01 T02350168  RH  069%=      5-min Rain = 0
KLD1 151310Z 28006KT 24/17 A3019 RMK A01 T02390169  RH  068%=      5-min Rain = 0
KLD1 151315Z 29003KT 24/17 A3019 RMK A01 T02400169  RH  068%=      5-min Rain = 0
KLD1 151320Z 22002KT 24/17 A3019 RMK A01 T02440170  RH  067%=      5-min Rain = 0
KLD1 151325Z 21002KT 25/17 A3019 RMK A01 T02460172  RH  067%=      5-min Rain = 0
KLD1 151330Z 28003KT 25/17 A3019 RMK A01 T02500173  RH  066%=      5-min Rain = 0
KLD1 151335Z 29005KT 26/17 A302 RMK A01 T02560172  RH  063%=      5-min Rain = 0
KLD1 151340Z 28005KT 25/17 A302 RMK A01 T02540171  RH  063%=      5-min Rain = 0
KLD1 151345Z 31004KT 25/17 A302 RMK A01 T02520171  RH  064%=      5-min Rain = 0
KLD1 151350Z 34005KT 25/17 A302 RMK A01 T02510170  RH  064%=      5-min Rain = 0
KLD1 151355Z 35005KT 25/17 A302 RMK A01 T02520171  RH  064%=      5-min Rain = 0
KLD1 151400Z 36004KT 25/17 A302 RMK A01 T02520169  RH  063%=      5-min Rain = 0
KLD1 151405Z 36004KT 25/17 A302 RMK A01 T02540171  RH  063%=      5-min Rain = 0
KLD1 151410Z 01004KT 26/17 A302 RMK A01 T02560173  RH  064%=      5-min Rain = 0
KLD1 151415Z 01006KT 26/17 A302 RMK A01 T02550173  RH  063%=      5-min Rain = 0
KLD1 151420Z 01007KT 26/17 A302 RMK A01 T02550172  RH  063%=      5-min Rain = 0
KLD1 151425Z 01008KT 26/17 A302 RMK A01 T02560171  RH  062%=      5-min Rain = 0
KLD1 151430Z 00007KT 26/17 A3021 RMK A01 T02570168  RH  061%=      5-min Rain = 0
KLD1 151435Z 36006KT 26/17 A3021 RMK A01 T02570167  RH  060%=      5-min Rain = 0
KLD1 151440Z 00006KT 26/17 A3021 RMK A01 T02570167  RH  060%=      5-min Rain = 0
KLD1 151445Z 01006KT 26/16 A3021 RMK A01 T02570164  RH  059%=      5-min Rain = 0
KLD1 151450Z 01006KT 26/16 A302 RMK A01 T02570164  RH  059%=      5-min Rain = 0
KLD1 151455Z 01006KT 26/16 A302 RMK A01 T02580163  RH  058%=      5-min Rain = 0
KLD1 151500Z 02006KT 26/17 A302 RMK A01 T02630165  RH  057%=      5-min Rain = 0
KLD1 151505Z 01005KT 27/16 A302 RMK A01 T02660163  RH  056%=      5-min Rain = 0
KLD1 151510Z 01004KT 27/16 A302 RMK A01 T02670162  RH  055%=      5-min Rain = 0
KLD1 151515Z 03004KT 27/16 A302 RMK A01 T02710164  RH  055%=      5-min Rain = 0
KLD1 151520Z 35002KT 27/17 A302 RMK A01 T02720165  RH  055%=      5-min Rain = 0
KLD1 151525Z 02003KT 27/17 A302 RMK A01 T02740167  RH  055%=      5-min Rain = 0
KLD1 151530Z 01002KT 28/17 A302 RMK A01 T02760168  RH  055%=      5-min Rain = 0
KLD1 151535Z 02003KT 28/17 A302 RMK A01 T02760170  RH  055%=      5-min Rain = 0
KLD1 151540Z 34003KT 28/17 A302 RMK A01 T02780172  RH  055%=      5-min Rain = 0
KLD1 151545Z 33004KT 28/17 A302 RMK A01 T02770172  RH  055%=      5-min Rain = 0
KLD1 151550Z 01002KT 28/17 A302 RMK A01 T02770172  RH  055%=      5-min Rain = 0
KLD1 151555Z 02002KT 28/17 A302 RMK A01 T02800174  RH  055%=      5-min Rain = 0
KLD1 151600Z 10002KT 29/18 A302 RMK A01 T02850175  RH  054%=      5-min Rain = 0
KLD1 151605Z 19002G7KT 29/18 A302 RMK A01 T02890175  RH  053%=      5-min Rain = 0
KLD1 151610Z 13004KT 29/18 A302 RMK A01 T02900175  RH  053%=      5-min Rain = 0
KLD1 151615Z 12004KT 29/18 A302 RMK A01 T02910176  RH  052%=      5-min Rain = 0
KLD1 151620Z 11004KT 29/18 A302 RMK A01 T02920177  RH  053%=      5-min Rain = 0
KLD1 151625Z 12004KT 29/18 A3019 RMK A01 T02930176  RH  052%=      5-min Rain = 0
KLD1 151630Z 14003KT 29/18 A3019 RMK A01 T02900176  RH  053%=      5-min Rain = 0
KLD1 151635Z 18004KT 29/18 A3019 RMK A01 T02890176  RH  053%=      5-min Rain = 0
KLD1 151640Z 16002KT 29/18 A3019 RMK A01 T02920175  RH  052%=      5-min Rain = 0
KLD1 151645Z 17003KT 29/18 A3019 RMK A01 T02940177  RH  052%=      5-min Rain = 0
KLD1 151650Z 18002KT 30/18 A3019 RMK A01 T02990178  RH  051%=      5-min Rain = 0
KLD1 151655Z 17004KT 30/18 A3018 RMK A01 T03040177  RH  049%=      5-min Rain = 0
KLD1 151700Z 18004KT 30/18 A3018 RMK A01 T03010175  RH  049%=      5-min Rain = 0
KLD1 151705Z 21002KT 30/18 A3018 RMK A01 T03010175  RH  049%=      5-min Rain = 0
KLD1 151710Z 16002KT 30/18 A3018 RMK A01 T03030179  RH  050%=      5-min Rain = 0
KLD1 151715Z 23002KT 31/18 A3017 RMK A01 T03070178  RH  049%=      5-min Rain = 0
KLD1 151720Z 14003KT 31/18 A3017 RMK A01 T03050175  RH  048%=      5-min Rain = 0
KLD1 151725Z 16002KT 31/17 A3017 RMK A01 T03060174  RH  047%=      5-min Rain = 0
KLD1 151730Z 16003KT 31/17 A3017 RMK A01 T03090173  RH  047%=      5-min Rain = 0
KLD1 151735Z 21002KT 31/17 A3016 RMK A01 T03100170  RH  045%=      5-min Rain = 0
KLD1 151740Z 21003KT 31/17 A3016 RMK A01 T03100173  RH  046%=      5-min Rain = 0
KLD1 151745Z 21002KT 31/17 A3016 RMK A01 T03100172  RH  046%=      5-min Rain = 0
KLD1 151750Z 17002KT 31/17 A3016 RMK A01 T03120168  RH  044%=      5-min Rain = 0
KLD1 151755Z 22003KT 31/17 A3015 RMK A01 T03120167  RH  044%=      5-min Rain = 0
KLD1 151800Z 22002KT 31/17 A3015 RMK A01 T03120166  RH  043%=      5-min Rain = 0
KLD1 151805Z 29002KT 32/17 A3015 RMK A01 T03160166  RH  043%=      5-min Rain = 0
KLD1 151810Z 20003KT 32/17 A3015 RMK A01 T03210169  RH  042%=      5-min Rain = 0
KLD1 151815Z 06001KT 33/17 A3014 RMK A01 T03250169  RH  041%=      5-min Rain = 0
KLD1 151820Z 21002KT 33/17 A3014 RMK A01 T03300170  RH  040%=      5-min Rain = 0
KLD1 151825Z 25002KT 33/17 A3014 RMK A01 T03260170  RH  041%=      5-min Rain = 0
KLD1 151830Z 14004KT 33/17 A3013 RMK A01 T03270171  RH  041%=      5-min Rain = 0
KLD1 151835Z 16002KT 33/17 A3013 RMK A01 T03260171  RH  042%=      5-min Rain = 0
KLD1 151840Z 14003KT 33/17 A3013 RMK A01 T03300168  RH  040%=      5-min Rain = 0
KLD1 151845Z 12003KT 33/16 A3012 RMK A01 T03290163  RH  039%=      5-min Rain = 0
KLD1 151850Z 22005KT 33/17 A3012 RMK A01 T03330166  RH  039%=      5-min Rain = 0
KLD1 151855Z 20006KT 34/17 A3011 RMK A01 T03360167  RH  038%=      5-min Rain = 0
KLD1 151900Z 19006KT 33/16 A3011 RMK A01 T03320162  RH  038%=      5-min Rain = 0
KLD1 151905Z 20004KT 34/16 A3011 RMK A01 T03370159  RH  036%=      5-min Rain = 0
KLD1 151910Z 19007KT 34/15 A3011 RMK A01 T03440149  RH  032%=      5-min Rain = 0
KLD1 151915Z 21005KT 35/14 A301 RMK A01 T03480144  RH  031%=      5-min Rain = 0
KLD1 151920Z 24006KT 35/14 A301 RMK A01 T03490143  RH  030%=      5-min Rain = 0
KLD1 151925Z 19007G12KT 35/15 A301 RMK A01 T03490149  RH  032%=      5-min Rain = 0
KLD1 151930Z 20007KT 35/15 A301 RMK A01 T03450153  RH  033%=      5-min Rain = 0
KLD1 151935Z 21007KT 35/16 A301 RMK A01 T03510156  RH  033%=      5-min Rain = 0
KLD1 151940Z 23008G13KT 35/14 A3009 RMK A01 T03510142  RH  030%=      5-min Rain = 0
KLD1 151945Z 21004KT 35/14 A3009 RMK A01 T03500138  RH  029%=      5-min Rain = 0
KLD1 151950Z 20003KT 35/14 A3009 RMK A01 T03520139  RH  029%=      5-min Rain = 0
KLD1 151955Z 20005G11KT 34/14 A3008 RMK A01 T03430143  RH  032%=      5-min Rain = 0
KLD1 152000Z 19003KT 34/15 A3008 RMK A01 T03410147  RH  033%=      5-min Rain = 0
KLD1 152005Z 22005G10KT 35/14 A3008 RMK A01 T03510141  RH  030%=      5-min Rain = 0
KLD1 152010Z 23007KT 35/14 A3007 RMK A01 T03540137  RH  028%=      5-min Rain = 0
KLD1 152015Z 21007KT 35/14 A3007 RMK A01 T03520137  RH  029%=      5-min Rain = 0
KLD1 152020Z 16007KT 36/15 A3007 RMK A01 T03550145  RH  030%=      5-min Rain = 0
KLD1 152025Z 16007KT 36/14 A3007 RMK A01 T03560142  RH  029%=      5-min Rain = 0
KLD1 152030Z 18004G9KT 35/14 A3006 RMK A01 T03500138  RH  029%=      5-min Rain = 0
KLD1 152035Z 21003KT 36/14 A3006 RMK A01 T03550135  RH  028%=      5-min Rain = 0
KLD1 152040Z 22005G10KT 36/13 A3006 RMK A01 T03610131  RH  026%=      5-min Rain = 0
KLD1 152045Z 19006KT 36/14 A3005 RMK A01 T03580135  RH  027%=      5-min Rain = 0
KLD1 152050Z 22006KT 35/13 A3005 RMK A01 T03530131  RH  027%=      5-min Rain = 0
KLD1 152055Z 22005KT 35/13 A3005 RMK A01 T03520130  RH  027%=      5-min Rain = 0
KLD1 152100Z 20004KT 35/13 A3005 RMK A01 T03540131  RH  027%=      5-min Rain = 0
KLD1 152105Z 20005G10KT 36/13 A3005 RMK A01 T03560130  RH  027%=      5-min Rain = 0
KLD1 152110Z 19007KT 35/14 A3005 RMK A01 T03490144  RH  031%=      5-min Rain = 0
KLD1 152115Z 19005KT 34/14 A3005 RMK A01 T03420144  RH  032%=      5-min Rain = 0
KLD1 152120Z 18004KT 34/14 A3004 RMK A01 T03370142  RH  032%=      5-min Rain = 0
KLD1 152125Z 18004KT 34/14 A3004 RMK A01 T03420141  RH  031%=      5-min Rain = 0
KLD1 152130Z 19007KT 33/16 A3004 RMK A01 T03330158  RH  037%=      5-min Rain = 0
KLD1 152135Z 20007KT 34/15 A3004 RMK A01 T03350150  RH  035%=      5-min Rain = 0
KLD1 152140Z 18006KT 34/16 A3004 RMK A01 T03410155  RH  034%=      5-min Rain = 0
KLD1 152145Z 19008G13KT 34/15 A3004 RMK A01 T03390152  RH  034%=      5-min Rain = 0
KLD1 152150Z 20015G22KT 33/16 A3004 RMK A01 T03290158  RH  037%=      5-min Rain = 0
KLD1 152155Z 19015G24KT 31/17 A3005 RMK A01 T03070171  RH  047%=      5-min Rain = 0
KLD1 152200Z 18019G27KT 31/17 A3005 RMK A01 T03060170  RH  046%=      5-min Rain = 0
KLD1 152205Z 18018G23KT 31/18 A3005 RMK A01 T03100175  RH  047%=      5-min Rain = 0
KLD1 152210Z 18016G22KT 31/18 A3004 RMK A01 T03060175  RH  048%=      5-min Rain = 0
KLD1 152215Z 18017KT 30/17 A3004 RMK A01 T03020172  RH  048%=      5-min Rain = 0
KLD1 152220Z 18017G24KT 30/17 A3004 RMK A01 T02960166  RH  048%=      5-min Rain = 0
KLD1 152225Z 18015G20KT 30/17 A3004 RMK A01 T02960167  RH  048%=      5-min Rain = 0
KLD1 152230Z 18015G22KT 30/17 A3004 RMK A01 T02980169  RH  048%=      5-min Rain = 0
KLD1 152235Z 18017G23KT 30/17 A3004 RMK A01 T02950165  RH  048%=      5-min Rain = 0
KLD1 152240Z 18017G24KT 29/16 A3004 RMK A01 T02930163  RH  048%=      5-min Rain = 0
KLD1 152245Z 18015G21KT 29/16 A3004 RMK A01 T02930161  RH  047%=      5-min Rain = 0
KLD1 152250Z 18015G21KT 29/16 A3004 RMK A01 T02940162  RH  047%=      5-min Rain = 0
KLD1 152255Z 18013KT 30/17 A3004 RMK A01 T02970165  RH  047%=      5-min Rain = 0
KLD1 152300Z 18012KT 30/17 A3004 RMK A01 T03010168  RH  047%=      5-min Rain = 0
KLD1 152305Z 18012KT 31/17 A3004 RMK A01 T03050169  RH  046%=      5-min Rain = 0
KLD1 152310Z 18014G19KT 31/17 A3003 RMK A01 T03070165  RH  044%=      5-min Rain = 0
KLD1 152315Z 18014G19KT 31/16 A3003 RMK A01 T03070161  RH  044%=      5-min Rain = 0
KLD1 152320Z 18012G17KT 30/16 A3003 RMK A01 T03040160  RH  044%=      5-min Rain = 0
KLD1 152325Z 17012G17KT 30/16 A3003 RMK A01 T03040158  RH  043%=      5-min Rain = 0
KLD1 152330Z 18014G19KT 31/15 A3003 RMK A01 T03050150  RH  041%=      5-min Rain = 0
KLD1 152335Z 17012G17KT 31/15 A3003 RMK A01 T03050149  RH  041%=      5-min Rain = 0
KLD1 152340Z 18013G18KT 30/15 A3003 RMK A01 T03040146  RH  040%=      5-min Rain = 0
KLD1 152345Z 18012KT 31/15 A3003 RMK A01 T03050145  RH  039%=      5-min Rain = 0
KLD1 152350Z 18013KT 31/14 A3003 RMK A01 T03060142  RH  039%=      5-min Rain = 0
KLD1 152355Z 18014KT 31/14 A3003 RMK A01 T03060142  RH  038%=      5-min Rain = 0
KLD1 160000Z 18010G15KT 31/15 A3003 RMK A01 T03050145  RH  039%=      5-min Rain = 0
KLD1 160005Z 18010KT 31/15 A3003 RMK A01 T03080147  RH  039%=      5-min Rain = 0
KLD1 160010Z 18010KT 31/15 A3003 RMK A01 T03120151  RH  039%=      5-min Rain = 0
KLD1 160015Z 18011KT 31/15 A3003 RMK A01 T03110152  RH  040%=      5-min Rain = 0
KLD1 160020Z 18011KT 31/15 A3002 RMK A01 T03090149  RH  040%=      5-min Rain = 0
KLD1 160025Z 18009KT 31/15 A3002 RMK A01 T03090149  RH  040%=      5-min Rain = 0
KLD1 160030Z 19010KT 31/14 A3002 RMK A01 T03090142  RH  038%=      5-min Rain = 0
KLD1 160035Z 19010KT 31/14 A3002 RMK A01 T03090140  RH  037%=      5-min Rain = 0
KLD1 160040Z 19010KT 31/14 A3002 RMK A01 T03070139  RH  037%=      5-min Rain = 0
KLD1 160045Z 19009KT 31/14 A3002 RMK A01 T03050143  RH  039%=      5-min Rain = 0
KLD1 160050Z 19007KT 30/15 A3002 RMK A01 T03020148  RH  041%=      5-min Rain = 0
KLD1 160055Z 18008KT 30/15 A3002 RMK A01 T03000147  RH  041%=      5-min Rain = 0
KLD1 160100Z 18008KT 30/15 A3002 RMK A01 T02990146  RH  041%=      5-min Rain = 0
KLD1 160105Z 18008KT 30/15 A3002 RMK A01 T02960145  RH  042%=      5-min Rain = 0
KLD1 160110Z 18008KT 29/15 A3002 RMK A01 T02930146  RH  043%=      5-min Rain = 0
KLD1 160115Z 18008KT 29/15 A3002 RMK A01 T02910148  RH  044%=      5-min Rain = 0
KLD1 160120Z 18007KT 29/15 A3003 RMK A01 T02860149  RH  045%=      5-min Rain = 0
KLD1 160125Z 19008KT 28/15 A3002 RMK A01 T02820150  RH  047%=      5-min Rain = 0
KLD1 160130Z 19008KT 28/15 A3002 RMK A01 T02800149  RH  047%=      5-min Rain = 0
KLD1 160135Z 19008KT 28/15 A3002 RMK A01 T02790149  RH  047%=      5-min Rain = 0
KLD1 160140Z 18007KT 28/15 A3002 RMK A01 T02770151  RH  048%=      5-min Rain = 0
KLD1 160145Z 18007KT 27/15 A3002 RMK A01 T02740153  RH  050%=      5-min Rain = 0
KLD1 160150Z 18006KT 27/15 A3002 RMK A01 T02700154  RH  051%=      5-min Rain = 0
KLD1 160155Z 18006KT 27/16 A3002 RMK A01 T02650156  RH  054%=      5-min Rain = 0
KLD1 160200Z 17006KT 26/16 A3002 RMK A01 T02600157  RH  055%=      5-min Rain = 0
KLD1 160205Z 16006KT 26/16 A3002 RMK A01 T02570157  RH  057%=      5-min Rain = 0
KLD1 160210Z 15008KT 26/16 A3002 RMK A01 T02570157  RH  057%=      5-min Rain = 0
KLD1 160215Z 15008KT 26/16 A3003 RMK A01 T02560156  RH  057%=      5-min Rain = 0
KLD1 160220Z 16007KT 25/16 A3003 RMK A01 T02540155  RH  057%=      5-min Rain = 0
KLD1 160225Z 17008KT 25/15 A3003 RMK A01 T02530153  RH  057%=      5-min Rain = 0
KLD1 160230Z 17007KT 26/15 A3003 RMK A01 T02550149  RH  054%=      5-min Rain = 0
KLD1 160235Z 17007KT 26/15 A3003 RMK A01 T02560147  RH  053%=      5-min Rain = 0
KLD1 160240Z 18007KT 26/15 A3004 RMK A01 T02560146  RH  053%=      5-min Rain = 0
KLD1 160245Z 18007KT 25/15 A3004 RMK A01 T02530147  RH  054%=      5-min Rain = 0
KLD1 160250Z 18007KT 25/15 A3004 RMK A01 T02520145  RH  054%=      5-min Rain = 0
KLD1 160255Z 19007KT 25/14 A3005 RMK A01 T02540141  RH  052%=      5-min Rain = 0
KLD1 160300Z 18008KT 25/14 A3005 RMK A01 T02540139  RH  051%=      5-min Rain = 0
KLD1 160305Z 18008KT 25/14 A3005 RMK A01 T02530138  RH  051%=      5-min Rain = 0
KLD1 160310Z 18008KT 25/14 A3005 RMK A01 T02520138  RH  051%=      5-min Rain = 0
KLD1 160315Z 18008KT 25/14 A3005 RMK A01 T02490138  RH  052%=      5-min Rain = 0
KLD1 160320Z 17008KT 25/14 A3005 RMK A01 T02480136  RH  052%=      5-min Rain = 0
KLD1 160325Z 17008KT 25/14 A3005 RMK A01 T02490135  RH  051%=      5-min Rain = 0
KLD1 160330Z 17008KT 25/14 A3005 RMK A01 T02480135  RH  051%=      5-min Rain = 0
KLD1 160335Z 17008KT 25/13 A3005 RMK A01 T02490133  RH  051%=      5-min Rain = 0
KLD1 160340Z 17008KT 25/13 A3006 RMK A01 T02500132  RH  050%=      5-min Rain = 0
KLD1 160345Z 18007KT 25/13 A3006 RMK A01 T02500131  RH  049%=      5-min Rain = 0
KLD1 160350Z 18007KT 25/13 A3006 RMK A01 T02480130  RH  050%=      5-min Rain = 0
KLD1 160355Z 17007KT 25/13 A3006 RMK A01 T02470131  RH  050%=      5-min Rain = 0
KLD1 160400Z 17007KT 25/13 A3006 RMK A01 T02450131  RH  051%=      5-min Rain = 0
KLD1 160405Z 17008KT 24/13 A3006 RMK A01 T02430131  RH  052%=      5-min Rain = 0
KLD1 160410Z 18007KT 24/13 A3006 RMK A01 T02420131  RH  052%=      5-min Rain = 0
KLD1 160415Z 18007KT 24/13 A3006 RMK A01 T02410131  RH  052%=      5-min Rain = 0
KLD1 160420Z 17007KT 24/13 A3006 RMK A01 T02410129  RH  052%=      5-min Rain = 0
KLD1 160425Z 17007KT 24/13 A3006 RMK A01 T02400128  RH  052%=      5-min Rain = 0
KLD1 160430Z 17007KT 24/13 A3007 RMK A01 T02390128  RH  052%=      5-min Rain = 0
KLD1 160435Z 16006KT 24/13 A3007 RMK A01 T02390126  RH  051%=      5-min Rain = 0
KLD1 160440Z 15006KT 24/13 A3007 RMK A01 T02380128  RH  052%=      5-min Rain = 0
KLD1 160445Z 16007KT 24/13 A3007 RMK A01 T02370130  RH  053%=      5-min Rain = 0
KLD1 160450Z 16007KT 23/13 A3007 RMK A01 T02320132  RH  055%=      5-min Rain = 0
KLD1 160455Z 17007KT 23/13 A3007 RMK A01 T02300132  RH  056%=      5-min Rain = 0

Page generated in 0.0293 seconds.